sensor_id;sensor_type;location;lat;lon;timestamp;P1;durP1;ratioP1;P2;durP2;ratioP2
19739;SDS011;10027;51.066;13.768;2022-09-01T00:01:28;3.07;;;2.20;;
19739;SDS011;10027;51.066;13.768;2022-09-01T00:03:56;2.30;;;2.10;;
19739;SDS011;10027;51.066;13.768;2022-09-01T00:06:29;4.20;;;2.00;;
19739;SDS011;10027;51.066;13.768;2022-09-01T00:08:57;2.10;;;1.90;;
19739;SDS011;10027;51.066;13.768;2022-09-01T00:11:25;3.77;;;2.10;;
19739;SDS011;10027;51.066;13.768;2022-09-01T00:13:53;2.03;;;1.90;;
19739;SDS011;10027;51.066;13.768;2022-09-01T00:16:21;2.20;;;2.00;;
19739;SDS011;10027;51.066;13.768;2022-09-01T00:18:49;2.73;;;2.10;;
19739;SDS011;10027;51.066;13.768;2022-09-01T00:21:17;2.73;;;2.13;;
19739;SDS011;10027;51.066;13.768;2022-09-01T00:23:45;2.67;;;2.30;;
19739;SDS011;10027;51.066;13.768;2022-09-01T00:26:12;2.67;;;2.07;;
19739;SDS011;10027;51.066;13.768;2022-09-01T00:28:40;2.30;;;2.10;;
19739;SDS011;10027;51.066;13.768;2022-09-01T00:31:07;2.30;;;2.10;;
19739;SDS011;10027;51.066;13.768;2022-09-01T00:33:36;2.30;;;2.00;;
19739;SDS011;10027;51.066;13.768;2022-09-01T00:36:04;3.00;;;2.07;;
19739;SDS011;10027;51.066;13.768;2022-09-01T00:38:31;2.40;;;2.00;;
19739;SDS011;10027;51.066;13.768;2022-09-01T00:40:59;2.60;;;2.00;;
19739;SDS011;10027;51.066;13.768;2022-09-01T00:46:07;2.00;;;1.90;;
19739;SDS011;10027;51.066;13.768;2022-09-01T00:48:35;3.57;;;2.10;;
19739;SDS011;10027;51.066;13.768;2022-09-01T00:51:03;2.00;;;1.90;;
19739;SDS011;10027;51.066;13.768;2022-09-01T00:53:31;2.83;;;1.97;;
19739;SDS011;10027;51.066;13.768;2022-09-01T00:55:59;2.03;;;1.90;;
19739;SDS011;10027;51.066;13.768;2022-09-01T00:58:26;3.10;;;2.27;;
19739;SDS011;10027;51.066;13.768;2022-09-01T01:00:53;3.63;;;2.03;;
19739;SDS011;10027;51.066;13.768;2022-09-01T01:03:21;2.60;;;2.30;;
19739;SDS011;10027;51.066;13.768;2022-09-01T01:05:50;2.07;;;1.97;;
19739;SDS011;10027;51.066;13.768;2022-09-01T01:08:29;2.40;;;2.20;;
19739;SDS011;10027;51.066;13.768;2022-09-01T01:11:07;3.50;;;1.93;;
19739;SDS011;10027;51.066;13.768;2022-09-01T01:16:14;3.27;;;2.00;;
19739;SDS011;10027;51.066;13.768;2022-09-01T01:18:41;2.33;;;2.13;;
19739;SDS011;10027;51.066;13.768;2022-09-01T01:21:51;6.10;;;2.00;;
19739;SDS011;10027;51.066;13.768;2022-09-01T01:24:22;3.13;;;2.00;;
19739;SDS011;10027;51.066;13.768;2022-09-01T01:26:49;2.20;;;2.00;;
19739;SDS011;10027;51.066;13.768;2022-09-01T01:29:17;2.20;;;2.00;;
19739;SDS011;10027;51.066;13.768;2022-09-01T01:31:44;4.00;;;2.03;;
19739;SDS011;10027;51.066;13.768;2022-09-01T01:34:17;2.50;;;2.00;;
19739;SDS011;10027;51.066;13.768;2022-09-01T01:36:45;2.50;;;2.20;;
19739;SDS011;10027;51.066;13.768;2022-09-01T01:39:17;2.90;;;1.90;;
19739;SDS011;10027;51.066;13.768;2022-09-01T01:41:45;3.37;;;2.30;;
19739;SDS011;10027;51.066;13.768;2022-09-01T01:44:15;2.20;;;2.00;;
19739;SDS011;10027;51.066;13.768;2022-09-01T01:46:44;2.20;;;2.00;;
19739;SDS011;10027;51.066;13.768;2022-09-01T01:49:12;2.40;;;2.00;;
19739;SDS011;10027;51.066;13.768;2022-09-01T01:51:46;4.20;;;2.17;;
19739;SDS011;10027;51.066;13.768;2022-09-01T01:54:13;2.60;;;2.03;;
19739;SDS011;10027;51.066;13.768;2022-09-01T01:56:42;2.40;;;2.20;;
19739;SDS011;10027;51.066;13.768;2022-09-01T01:59:09;3.43;;;2.37;;
19739;SDS011;10027;51.066;13.768;2022-09-01T02:01:41;2.33;;;2.13;;
19739;SDS011;10027;51.066;13.768;2022-09-01T02:04:09;3.77;;;2.40;;
19739;SDS011;10027;51.066;13.768;2022-09-01T02:06:37;2.07;;;1.87;;
19739;SDS011;10027;51.066;13.768;2022-09-01T02:09:11;4.10;;;2.30;;
19739;SDS011;10027;51.066;13.768;2022-09-01T02:11:38;3.63;;;2.10;;
19739;SDS011;10027;51.066;13.768;2022-09-01T02:14:06;2.67;;;2.00;;
19739;SDS011;10027;51.066;13.768;2022-09-01T02:16:34;2.07;;;1.80;;
19739;SDS011;10027;51.066;13.768;2022-09-01T02:19:03;2.17;;;1.97;;
19739;SDS011;10027;51.066;13.768;2022-09-01T02:21:32;2.47;;;2.17;;
19739;SDS011;10027;51.066;13.768;2022-09-01T02:24:01;2.53;;;1.93;;
19739;SDS011;10027;51.066;13.768;2022-09-01T02:26:30;2.37;;;2.10;;
19739;SDS011;10027;51.066;13.768;2022-09-01T02:29:01;3.50;;;2.10;;
19739;SDS011;10027;51.066;13.768;2022-09-01T02:31:31;3.23;;;2.13;;
19739;SDS011;10027;51.066;13.768;2022-09-01T02:34:00;2.17;;;1.97;;
19739;SDS011;10027;51.066;13.768;2022-09-01T02:36:28;2.80;;;2.00;;
19739;SDS011;10027;51.066;13.768;2022-09-01T02:39:00;2.20;;;2.00;;
19739;SDS011;10027;51.066;13.768;2022-09-01T02:41:27;1.93;;;1.83;;
19739;SDS011;10027;51.066;13.768;2022-09-01T02:43:57;3.30;;;2.10;;
19739;SDS011;10027;51.066;13.768;2022-09-01T02:46:27;2.50;;;2.27;;
19739;SDS011;10027;51.066;13.768;2022-09-01T02:48:55;2.63;;;2.27;;
19739;SDS011;10027;51.066;13.768;2022-09-01T02:51:23;2.30;;;2.10;;
19739;SDS011;10027;51.066;13.768;2022-09-01T02:53:51;2.17;;;1.97;;
19739;SDS011;10027;51.066;13.768;2022-09-01T02:56:20;2.43;;;2.00;;
19739;SDS011;10027;51.066;13.768;2022-09-01T02:58:50;2.90;;;2.13;;
19739;SDS011;10027;51.066;13.768;2022-09-01T03:01:20;2.60;;;2.40;;
19739;SDS011;10027;51.066;13.768;2022-09-01T03:03:51;4.83;;;2.33;;
19739;SDS011;10027;51.066;13.768;2022-09-01T03:06:19;2.70;;;1.90;;
19739;SDS011;10027;51.066;13.768;2022-09-01T03:08:50;2.13;;;1.93;;
19739;SDS011;10027;51.066;13.768;2022-09-01T03:11:17;3.10;;;2.20;;
19739;SDS011;10027;51.066;13.768;2022-09-01T03:13:45;3.07;;;2.20;;
19739;SDS011;10027;51.066;13.768;2022-09-01T03:16:12;3.60;;;1.97;;
19739;SDS011;10027;51.066;13.768;2022-09-01T03:18:39;6.17;;;1.90;;
19739;SDS011;10027;51.066;13.768;2022-09-01T03:21:08;2.20;;;2.00;;
19739;SDS011;10027;51.066;13.768;2022-09-01T03:23:42;2.57;;;2.17;;
19739;SDS011;10027;51.066;13.768;2022-09-01T03:26:09;4.03;;;2.50;;
19739;SDS011;10027;51.066;13.768;2022-09-01T03:28:37;3.10;;;2.30;;
19739;SDS011;10027;51.066;13.768;2022-09-01T03:31:04;2.63;;;2.40;;
19739;SDS011;10027;51.066;13.768;2022-09-01T03:33:32;2.67;;;2.17;;
19739;SDS011;10027;51.066;13.768;2022-09-01T03:35:59;2.30;;;2.10;;
19739;SDS011;10027;51.066;13.768;2022-09-01T03:38:26;3.63;;;2.40;;
19739;SDS011;10027;51.066;13.768;2022-09-01T03:40:57;2.70;;;2.50;;
19739;SDS011;10027;51.066;13.768;2022-09-01T03:43:27;2.50;;;2.30;;
19739;SDS011;10027;51.066;13.768;2022-09-01T03:46:01;2.40;;;2.10;;
19739;SDS011;10027;51.066;13.768;2022-09-01T03:48:29;2.20;;;1.93;;
19739;SDS011;10027;51.066;13.768;2022-09-01T03:50:58;2.53;;;2.13;;
19739;SDS011;10027;51.066;13.768;2022-09-01T03:53:30;3.03;;;2.00;;
19739;SDS011;10027;51.066;13.768;2022-09-01T03:55:58;2.53;;;2.30;;
19739;SDS011;10027;51.066;13.768;2022-09-01T03:58:26;2.40;;;2.20;;
19739;SDS011;10027;51.066;13.768;2022-09-01T04:00:55;2.20;;;2.00;;
19739;SDS011;10027;51.066;13.768;2022-09-01T04:03:25;3.43;;;2.20;;
19739;SDS011;10027;51.066;13.768;2022-09-01T04:05:54;2.20;;;2.00;;
19739;SDS011;10027;51.066;13.768;2022-09-01T04:08:22;2.27;;;2.07;;
19739;SDS011;10027;51.066;13.768;2022-09-01T04:10:59;3.40;;;2.20;;
19739;SDS011;10027;51.066;13.768;2022-09-01T04:13:29;3.30;;;2.30;;
19739;SDS011;10027;51.066;13.768;2022-09-01T04:15:57;2.50;;;2.30;;
19739;SDS011;10027;51.066;13.768;2022-09-01T04:18:25;2.40;;;2.20;;
19739;SDS011;10027;51.066;13.768;2022-09-01T04:20:53;4.03;;;2.50;;
19739;SDS011;10027;51.066;13.768;2022-09-01T04:23:26;2.30;;;2.10;;
19739;SDS011;10027;51.066;13.768;2022-09-01T04:25:56;3.43;;;2.33;;
19739;SDS011;10027;51.066;13.768;2022-09-01T04:28:29;3.27;;;2.50;;
19739;SDS011;10027;51.066;13.768;2022-09-01T04:30:59;2.93;;;2.63;;
19739;SDS011;10027;51.066;13.768;2022-09-01T04:33:31;7.30;;;2.37;;
19739;SDS011;10027;51.066;13.768;2022-09-01T04:36:06;3.80;;;2.30;;
19739;SDS011;10027;51.066;13.768;2022-09-01T04:38:35;3.23;;;2.30;;
19739;SDS011;10027;51.066;13.768;2022-09-01T04:41:03;7.03;;;2.40;;
19739;SDS011;10027;51.066;13.768;2022-09-01T04:43:34;3.27;;;2.20;;
19739;SDS011;10027;51.066;13.768;2022-09-01T04:46:02;3.00;;;2.40;;
19739;SDS011;10027;51.066;13.768;2022-09-01T04:48:29;3.07;;;2.60;;
19739;SDS011;10027;51.066;13.768;2022-09-01T04:50:56;2.30;;;2.10;;
19739;SDS011;10027;51.066;13.768;2022-09-01T04:53:24;4.90;;;2.90;;
19739;SDS011;10027;51.066;13.768;2022-09-01T04:55:53;2.70;;;2.50;;
19739;SDS011;10027;51.066;13.768;2022-09-01T04:58:21;3.67;;;2.70;;
19739;SDS011;10027;51.066;13.768;2022-09-01T05:00:49;3.23;;;2.57;;
19739;SDS011;10027;51.066;13.768;2022-09-01T05:03:21;3.07;;;2.60;;
19739;SDS011;10027;51.066;13.768;2022-09-01T05:05:49;2.80;;;2.50;;
19739;SDS011;10027;51.066;13.768;2022-09-01T05:08:20;2.77;;;2.57;;
19739;SDS011;10027;51.066;13.768;2022-09-01T05:10:50;3.73;;;2.97;;
19739;SDS011;10027;51.066;13.768;2022-09-01T05:13:20;3.13;;;2.53;;
19739;SDS011;10027;51.066;13.768;2022-09-01T05:15:58;3.33;;;2.80;;
19739;SDS011;10027;51.066;13.768;2022-09-01T05:18:27;3.30;;;2.77;;
19739;SDS011;10027;51.066;13.768;2022-09-01T05:20:54;3.97;;;2.80;;
19739;SDS011;10027;51.066;13.768;2022-09-01T05:23:22;4.33;;;2.90;;
19739;SDS011;10027;51.066;13.768;2022-09-01T05:25:51;4.30;;;2.90;;
19739;SDS011;10027;51.066;13.768;2022-09-01T05:28:20;2.80;;;2.60;;
19739;SDS011;10027;51.066;13.768;2022-09-01T05:30:52;4.33;;;3.00;;
19739;SDS011;10027;51.066;13.768;2022-09-01T05:33:20;4.97;;;3.10;;
19739;SDS011;10027;51.066;13.768;2022-09-01T05:35:54;4.87;;;2.90;;
19739;SDS011;10027;51.066;13.768;2022-09-01T05:38:22;6.00;;;3.20;;
19739;SDS011;10027;51.066;13.768;2022-09-01T05:40:54;3.83;;;3.13;;
19739;SDS011;10027;51.066;13.768;2022-09-01T05:43:23;6.33;;;3.20;;
19739;SDS011;10027;51.066;13.768;2022-09-01T05:45:52;4.80;;;3.13;;
19739;SDS011;10027;51.066;13.768;2022-09-01T05:48:31;5.47;;;3.40;;
19739;SDS011;10027;51.066;13.768;2022-09-01T05:51:00;3.83;;;3.27;;
19739;SDS011;10027;51.066;13.768;2022-09-01T05:53:27;7.03;;;3.77;;
19739;SDS011;10027;51.066;13.768;2022-09-01T05:55:56;5.00;;;3.57;;
19739;SDS011;10027;51.066;13.768;2022-09-01T05:58:24;4.57;;;3.73;;
19739;SDS011;10027;51.066;13.768;2022-09-01T06:00:52;6.30;;;4.13;;
19739;SDS011;10027;51.066;13.768;2022-09-01T06:03:21;6.27;;;3.90;;
19739;SDS011;10027;51.066;13.768;2022-09-01T06:05:50;7.63;;;4.03;;
19739;SDS011;10027;51.066;13.768;2022-09-01T06:08:19;6.13;;;4.00;;
19739;SDS011;10027;51.066;13.768;2022-09-01T06:10:48;5.53;;;3.77;;
19739;SDS011;10027;51.066;13.768;2022-09-01T06:13:16;5.77;;;4.00;;
19739;SDS011;10027;51.066;13.768;2022-09-01T06:15:50;4.73;;;4.00;;
19739;SDS011;10027;51.066;13.768;2022-09-01T06:18:19;5.27;;;4.00;;
19739;SDS011;10027;51.066;13.768;2022-09-01T06:20:47;6.27;;;3.77;;
19739;SDS011;10027;51.066;13.768;2022-09-01T06:23:15;5.53;;;3.70;;
19739;SDS011;10027;51.066;13.768;2022-09-01T06:25:43;3.97;;;3.57;;
19739;SDS011;10027;51.066;13.768;2022-09-01T06:28:15;9.27;;;3.80;;
19739;SDS011;10027;51.066;13.768;2022-09-01T06:30:46;6.63;;;3.60;;
19739;SDS011;10027;51.066;13.768;2022-09-01T06:33:14;4.73;;;3.83;;
19739;SDS011;10027;51.066;13.768;2022-09-01T06:35:42;6.43;;;4.00;;
19739;SDS011;10027;51.066;13.768;2022-09-01T06:38:12;5.10;;;3.87;;
19739;SDS011;10027;51.066;13.768;2022-09-01T06:40:42;4.90;;;3.90;;
19739;SDS011;10027;51.066;13.768;2022-09-01T06:43:11;6.60;;;4.00;;
19739;SDS011;10027;51.066;13.768;2022-09-01T06:45:43;5.63;;;3.90;;
19739;SDS011;10027;51.066;13.768;2022-09-01T06:48:11;7.70;;;4.30;;
19739;SDS011;10027;51.066;13.768;2022-09-01T06:50:41;6.97;;;3.90;;
19739;SDS011;10027;51.066;13.768;2022-09-01T06:53:28;5.33;;;4.10;;
19739;SDS011;10027;51.066;13.768;2022-09-01T06:55:58;5.40;;;3.77;;
19739;SDS011;10027;51.066;13.768;2022-09-01T06:58:25;5.30;;;4.20;;
19739;SDS011;10027;51.066;13.768;2022-09-01T07:00:52;8.23;;;3.77;;
19739;SDS011;10027;51.066;13.768;2022-09-01T07:03:20;6.83;;;3.63;;
19739;SDS011;10027;51.066;13.768;2022-09-01T07:05:49;5.03;;;3.90;;
19739;SDS011;10027;51.066;13.768;2022-09-01T07:08:27;4.03;;;3.63;;
19739;SDS011;10027;51.066;13.768;2022-09-01T07:10:55;5.57;;;3.90;;
19739;SDS011;10027;51.066;13.768;2022-09-01T07:13:43;6.30;;;3.83;;
19739;SDS011;10027;51.066;13.768;2022-09-01T07:16:32;5.80;;;3.80;;
19739;SDS011;10027;51.066;13.768;2022-09-01T07:19:17;4.93;;;3.47;;
19739;SDS011;10027;51.066;13.768;2022-09-01T07:21:44;4.37;;;3.70;;
19739;SDS011;10027;51.066;13.768;2022-09-01T07:24:31;3.93;;;3.57;;
19739;SDS011;10027;51.066;13.768;2022-09-01T07:27:00;7.37;;;3.73;;
19739;SDS011;10027;51.066;13.768;2022-09-01T07:29:36;6.60;;;3.67;;
19739;SDS011;10027;51.066;13.768;2022-09-01T07:32:06;4.23;;;3.37;;
19739;SDS011;10027;51.066;13.768;2022-09-01T07:34:56;6.63;;;3.20;;
19739;SDS011;10027;51.066;13.768;2022-09-01T07:37:25;4.37;;;3.07;;
19739;SDS011;10027;51.066;13.768;2022-09-01T07:40:14;4.07;;;2.97;;
19739;SDS011;10027;51.066;13.768;2022-09-01T07:43:04;3.87;;;3.10;;
19739;SDS011;10027;51.066;13.768;2022-09-01T07:45:36;3.70;;;3.30;;
19739;SDS011;10027;51.066;13.768;2022-09-01T07:48:12;7.60;;;2.90;;
19739;SDS011;10027;51.066;13.768;2022-09-01T07:51:01;4.00;;;3.33;;
19739;SDS011;10027;51.066;13.768;2022-09-01T07:53:49;6.30;;;3.23;;
19739;SDS011;10027;51.066;13.768;2022-09-01T07:56:17;4.47;;;3.30;;
19739;SDS011;10027;51.066;13.768;2022-09-01T07:58:46;5.47;;;3.30;;
19739;SDS011;10027;51.066;13.768;2022-09-01T08:01:15;3.30;;;3.00;;
19739;SDS011;10027;51.066;13.768;2022-09-01T08:03:48;4.77;;;2.90;;
19739;SDS011;10027;51.066;13.768;2022-09-01T08:06:17;4.10;;;3.00;;
19739;SDS011;10027;51.066;13.768;2022-09-01T08:08:48;4.87;;;3.50;;
19739;SDS011;10027;51.066;13.768;2022-09-01T08:11:23;4.20;;;3.00;;
19739;SDS011;10027;51.066;13.768;2022-09-01T08:14:11;4.47;;;2.83;;
19739;SDS011;10027;51.066;13.768;2022-09-01T08:16:38;5.40;;;2.90;;
19739;SDS011;10027;51.066;13.768;2022-09-01T08:19:17;3.47;;;2.70;;
19739;SDS011;10027;51.066;13.768;2022-09-01T08:21:44;4.63;;;3.10;;
19739;SDS011;10027;51.066;13.768;2022-09-01T08:24:11;6.03;;;3.33;;
19739;SDS011;10027;51.066;13.768;2022-09-01T08:26:39;4.20;;;3.10;;
19739;SDS011;10027;51.066;13.768;2022-09-01T08:29:06;5.90;;;3.60;;
19739;SDS011;10027;51.066;13.768;2022-09-01T08:31:33;5.67;;;3.60;;
19739;SDS011;10027;51.066;13.768;2022-09-01T08:34:01;8.10;;;4.67;;
19739;SDS011;10027;51.066;13.768;2022-09-01T08:36:30;4.73;;;3.30;;
19739;SDS011;10027;51.066;13.768;2022-09-01T08:38:57;5.97;;;3.00;;
19739;SDS011;10027;51.066;13.768;2022-09-01T08:46:28;4.27;;;2.70;;
19739;SDS011;10027;51.066;13.768;2022-09-01T08:48:57;3.73;;;2.53;;
19739;SDS011;10027;51.066;13.768;2022-09-01T08:51:47;5.37;;;2.80;;
19739;SDS011;10027;51.066;13.768;2022-09-01T08:57:04;3.87;;;2.57;;
19739;SDS011;10027;51.066;13.768;2022-09-01T08:59:31;5.27;;;2.30;;
19739;SDS011;10027;51.066;13.768;2022-09-01T09:07:09;3.23;;;2.30;;
19739;SDS011;10027;51.066;13.768;2022-09-01T09:09:40;2.67;;;2.23;;
19739;SDS011;10027;51.066;13.768;2022-09-01T09:15:31;4.63;;;2.40;;
19739;SDS011;10027;51.066;13.768;2022-09-01T09:21:13;3.87;;;2.20;;
19739;SDS011;10027;51.066;13.768;2022-09-01T09:23:44;2.83;;;1.97;;
19739;SDS011;10027;51.066;13.768;2022-09-01T09:26:12;2.90;;;2.20;;
19739;SDS011;10027;51.066;13.768;2022-09-01T09:28:42;2.93;;;1.97;;
19739;SDS011;10027;51.066;13.768;2022-09-01T09:31:28;2.80;;;2.03;;
19739;SDS011;10027;51.066;13.768;2022-09-01T09:33:56;3.40;;;1.93;;
19739;SDS011;10027;51.066;13.768;2022-09-01T09:36:31;3.17;;;2.10;;
19739;SDS011;10027;51.066;13.768;2022-09-01T09:39:04;3.33;;;2.10;;
19739;SDS011;10027;51.066;13.768;2022-09-01T09:41:32;4.63;;;2.10;;
19739;SDS011;10027;51.066;13.768;2022-09-01T09:44:02;3.57;;;2.00;;
19739;SDS011;10027;51.066;13.768;2022-09-01T09:51:41;4.50;;;2.03;;
19739;SDS011;10027;51.066;13.768;2022-09-01T09:54:09;5.77;;;2.20;;
19739;SDS011;10027;51.066;13.768;2022-09-01T09:56:37;2.90;;;2.07;;
19739;SDS011;10027;51.066;13.768;2022-09-01T09:59:43;2.10;;;1.87;;
19739;SDS011;10027;51.066;13.768;2022-09-01T10:04:53;2.47;;;1.90;;
19739;SDS011;10027;51.066;13.768;2022-09-01T10:07:29;2.33;;;1.80;;
19739;SDS011;10027;51.066;13.768;2022-09-01T10:09:59;4.27;;;2.23;;
19739;SDS011;10027;51.066;13.768;2022-09-01T10:12:27;2.10;;;1.80;;
19739;SDS011;10027;51.066;13.768;2022-09-01T10:15:00;2.50;;;1.90;;
19739;SDS011;10027;51.066;13.768;2022-09-01T10:17:39;3.20;;;1.80;;
19739;SDS011;10027;51.066;13.768;2022-09-01T10:20:12;4.43;;;2.00;;
19739;SDS011;10027;51.066;13.768;2022-09-01T10:22:42;2.43;;;1.60;;
19739;SDS011;10027;51.066;13.768;2022-09-01T10:25:12;2.57;;;2.00;;
19739;SDS011;10027;51.066;13.768;2022-09-01T10:27:41;3.93;;;1.83;;
19739;SDS011;10027;51.066;13.768;2022-09-01T10:30:14;2.40;;;1.90;;
19739;SDS011;10027;51.066;13.768;2022-09-01T10:33:03;2.37;;;1.70;;
19739;SDS011;10027;51.066;13.768;2022-09-01T10:35:44;2.00;;;1.80;;
19739;SDS011;10027;51.066;13.768;2022-09-01T10:40:47;1.73;;;1.50;;
19739;SDS011;10027;51.066;13.768;2022-09-01T10:45:52;1.63;;;1.30;;
19739;SDS011;10027;51.066;13.768;2022-09-01T10:48:31;4.03;;;1.40;;
19739;SDS011;10027;51.066;13.768;2022-09-01T11:09:40;1.10;;;1.00;;
19739;SDS011;10027;51.066;13.768;2022-09-01T11:25:07;1.90;;;1.00;;
19739;SDS011;10027;51.066;13.768;2022-09-01T11:30:31;1.17;;;0.90;;
19739;SDS011;10027;51.066;13.768;2022-09-01T11:35:56;1.87;;;1.30;;
19739;SDS011;10027;51.066;13.768;2022-09-01T11:38:24;2.20;;;1.20;;
19739;SDS011;10027;51.066;13.768;2022-09-01T11:40:54;1.30;;;1.20;;
19739;SDS011;10027;51.066;13.768;2022-09-01T11:43:21;2.77;;;1.47;;
19739;SDS011;10027;51.066;13.768;2022-09-01T11:46:04;2.07;;;1.50;;
19739;SDS011;10027;51.066;13.768;2022-09-01T11:48:36;1.40;;;1.20;;
19739;SDS011;10027;51.066;13.768;2022-09-01T11:51:04;2.63;;;1.50;;
19739;SDS011;10027;51.066;13.768;2022-09-01T11:53:32;1.70;;;1.50;;
19739;SDS011;10027;51.066;13.768;2022-09-01T11:56:13;1.53;;;1.30;;
19739;SDS011;10027;51.066;13.768;2022-09-01T11:58:40;1.80;;;1.33;;
19739;SDS011;10027;51.066;13.768;2022-09-01T12:01:15;1.87;;;1.60;;
19739;SDS011;10027;51.066;13.768;2022-09-01T12:03:44;1.60;;;1.50;;
19739;SDS011;10027;51.066;13.768;2022-09-01T12:06:17;2.13;;;1.50;;
19739;SDS011;10027;51.066;13.768;2022-09-01T12:08:50;3.13;;;1.77;;
19739;SDS011;10027;51.066;13.768;2022-09-01T12:11:19;3.47;;;1.70;;
19739;SDS011;10027;51.066;13.768;2022-09-01T12:14:06;3.60;;;1.73;;
19739;SDS011;10027;51.066;13.768;2022-09-01T12:16:37;3.57;;;1.50;;
19739;SDS011;10027;51.066;13.768;2022-09-01T12:19:07;2.53;;;1.70;;
19739;SDS011;10027;51.066;13.768;2022-09-01T12:21:38;1.80;;;1.60;;
19739;SDS011;10027;51.066;13.768;2022-09-01T12:26:38;1.83;;;1.37;;
19739;SDS011;10027;51.066;13.768;2022-09-01T12:29:05;2.10;;;1.30;;
19739;SDS011;10027;51.066;13.768;2022-09-01T12:31:33;2.93;;;1.60;;
19739;SDS011;10027;51.066;13.768;2022-09-01T12:34:00;3.37;;;1.70;;
19739;SDS011;10027;51.066;13.768;2022-09-01T12:41:43;4.00;;;1.40;;
19739;SDS011;10027;51.066;13.768;2022-09-01T12:44:27;3.17;;;1.50;;
19739;SDS011;10027;51.066;13.768;2022-09-01T12:46:57;2.90;;;1.50;;
19739;SDS011;10027;51.066;13.768;2022-09-01T12:49:25;1.40;;;1.30;;
19739;SDS011;10027;51.066;13.768;2022-09-01T12:54:40;2.27;;;1.30;;
19739;SDS011;10027;51.066;13.768;2022-09-01T12:57:07;2.17;;;1.10;;
19739;SDS011;10027;51.066;13.768;2022-09-01T12:59:35;1.20;;;1.00;;
19739;SDS011;10027;51.066;13.768;2022-09-01T13:04:49;1.23;;;0.80;;
19739;SDS011;10027;51.066;13.768;2022-09-01T13:07:16;1.77;;;1.20;;
19739;SDS011;10027;51.066;13.768;2022-09-01T13:09:43;3.53;;;1.00;;
19739;SDS011;10027;51.066;13.768;2022-09-01T13:12:15;0.80;;;0.80;;
19739;SDS011;10027;51.066;13.768;2022-09-01T13:14:43;1.73;;;0.90;;
19739;SDS011;10027;51.066;13.768;2022-09-01T13:17:10;1.30;;;0.90;;
19739;SDS011;10027;51.066;13.768;2022-09-01T13:19:39;1.23;;;1.00;;
19739;SDS011;10027;51.066;13.768;2022-09-01T13:22:07;1.10;;;1.00;;
19739;SDS011;10027;51.066;13.768;2022-09-01T13:24:34;1.67;;;1.30;;
19739;SDS011;10027;51.066;13.768;2022-09-01T13:27:01;1.30;;;1.13;;
19739;SDS011;10027;51.066;13.768;2022-09-01T13:29:49;1.40;;;1.20;;
19739;SDS011;10027;51.066;13.768;2022-09-01T13:32:17;2.97;;;1.30;;
19739;SDS011;10027;51.066;13.768;2022-09-01T13:34:47;1.00;;;0.87;;
19739;SDS011;10027;51.066;13.768;2022-09-01T13:37:16;0.93;;;0.90;;
19739;SDS011;10027;51.066;13.768;2022-09-01T13:39:44;1.10;;;0.67;;
19739;SDS011;10027;51.066;13.768;2022-09-01T13:42:12;2.77;;;0.70;;
19739;SDS011;10027;51.066;13.768;2022-09-01T13:44:41;1.30;;;1.00;;
19739;SDS011;10027;51.066;13.768;2022-09-01T13:47:09;1.90;;;1.00;;
19739;SDS011;10027;51.066;13.768;2022-09-01T13:49:57;2.40;;;1.20;;
19739;SDS011;10027;51.066;13.768;2022-09-01T13:52:36;1.50;;;1.00;;
19739;SDS011;10027;51.066;13.768;2022-09-01T13:55:05;1.20;;;1.10;;
19739;SDS011;10027;51.066;13.768;2022-09-01T13:57:32;1.23;;;1.07;;
19739;SDS011;10027;51.066;13.768;2022-09-01T14:00:02;2.00;;;1.00;;
19739;SDS011;10027;51.066;13.768;2022-09-01T14:02:29;1.30;;;1.20;;
19739;SDS011;10027;51.066;13.768;2022-09-01T14:04:57;3.47;;;1.20;;
19739;SDS011;10027;51.066;13.768;2022-09-01T14:07:24;2.87;;;1.20;;
19739;SDS011;10027;51.066;13.768;2022-09-01T14:09:51;1.63;;;1.10;;
19739;SDS011;10027;51.066;13.768;2022-09-01T14:12:18;2.73;;;1.30;;
19739;SDS011;10027;51.066;13.768;2022-09-01T14:14:47;1.50;;;1.40;;
19739;SDS011;10027;51.066;13.768;2022-09-01T14:17:35;1.20;;;1.10;;
19739;SDS011;10027;51.066;13.768;2022-09-01T14:20:04;1.70;;;1.17;;
19739;SDS011;10027;51.066;13.768;2022-09-01T14:22:32;1.30;;;1.20;;
19739;SDS011;10027;51.066;13.768;2022-09-01T14:25:03;1.00;;;0.93;;
19739;SDS011;10027;51.066;13.768;2022-09-01T14:27:31;1.23;;;1.13;;
19739;SDS011;10027;51.066;13.768;2022-09-01T14:29:58;1.57;;;1.00;;
19739;SDS011;10027;51.066;13.768;2022-09-01T14:32:26;1.50;;;0.97;;
19739;SDS011;10027;51.066;13.768;2022-09-01T14:34:55;1.13;;;1.00;;
19739;SDS011;10027;51.066;13.768;2022-09-01T14:37:22;1.50;;;0.90;;
19739;SDS011;10027;51.066;13.768;2022-09-01T14:39:53;1.30;;;0.90;;
19739;SDS011;10027;51.066;13.768;2022-09-01T14:42:20;2.30;;;1.20;;
19739;SDS011;10027;51.066;13.768;2022-09-01T14:44:49;1.37;;;0.90;;
19739;SDS011;10027;51.066;13.768;2022-09-01T14:47:18;1.27;;;0.97;;
19739;SDS011;10027;51.066;13.768;2022-09-01T14:49:46;0.90;;;0.90;;
19739;SDS011;10027;51.066;13.768;2022-09-01T14:52:13;0.70;;;0.70;;
19739;SDS011;10027;51.066;13.768;2022-09-01T14:54:42;1.90;;;0.93;;
19739;SDS011;10027;51.066;13.768;2022-09-01T14:57:09;1.23;;;1.00;;
19739;SDS011;10027;51.066;13.768;2022-09-01T14:59:57;1.00;;;0.90;;
19739;SDS011;10027;51.066;13.768;2022-09-01T15:02:24;0.97;;;0.90;;
19739;SDS011;10027;51.066;13.768;2022-09-01T15:04:53;1.40;;;1.00;;
19739;SDS011;10027;51.066;13.768;2022-09-01T15:07:21;1.20;;;1.00;;
19739;SDS011;10027;51.066;13.768;2022-09-01T15:09:48;1.43;;;1.17;;
19739;SDS011;10027;51.066;13.768;2022-09-01T15:12:15;1.37;;;1.03;;
19739;SDS011;10027;51.066;13.768;2022-09-01T15:14:42;1.93;;;1.17;;
19739;SDS011;10027;51.066;13.768;2022-09-01T15:17:09;2.23;;;1.20;;
19739;SDS011;10027;51.066;13.768;2022-09-01T15:19:37;1.57;;;0.87;;
19739;SDS011;10027;51.066;13.768;2022-09-01T15:22:04;2.40;;;0.90;;
19739;SDS011;10027;51.066;13.768;2022-09-01T15:24:33;1.60;;;1.10;;
19739;SDS011;10027;51.066;13.768;2022-09-01T15:27:00;1.20;;;1.10;;
19739;SDS011;10027;51.066;13.768;2022-09-01T15:29:28;1.10;;;1.00;;
19739;SDS011;10027;51.066;13.768;2022-09-01T15:31:59;1.43;;;0.93;;
19739;SDS011;10027;51.066;13.768;2022-09-01T15:34:27;1.27;;;1.00;;
19739;SDS011;10027;51.066;13.768;2022-09-01T15:36:54;1.30;;;1.00;;
19739;SDS011;10027;51.066;13.768;2022-09-01T15:39:21;1.20;;;1.10;;
19739;SDS011;10027;51.066;13.768;2022-09-01T15:41:48;2.07;;;1.33;;
19739;SDS011;10027;51.066;13.768;2022-09-01T15:44:16;1.77;;;1.30;;
19739;SDS011;10027;51.066;13.768;2022-09-01T15:46:43;2.07;;;1.17;;
19739;SDS011;10027;51.066;13.768;2022-09-01T15:49:10;2.83;;;1.10;;
19739;SDS011;10027;51.066;13.768;2022-09-01T15:51:38;1.00;;;0.90;;
19739;SDS011;10027;51.066;13.768;2022-09-01T15:56:33;1.30;;;1.20;;
19739;SDS011;10027;51.066;13.768;2022-09-01T15:59:02;0.90;;;0.90;;
19739;SDS011;10027;51.066;13.768;2022-09-01T16:01:31;2.00;;;0.90;;
19739;SDS011;10027;51.066;13.768;2022-09-01T16:03:59;1.80;;;1.00;;
19739;SDS011;10027;51.066;13.768;2022-09-01T16:06:26;1.37;;;0.80;;
19739;SDS011;10027;51.066;13.768;2022-09-01T16:08:53;1.47;;;0.90;;
19739;SDS011;10027;51.066;13.768;2022-09-01T16:11:21;2.30;;;0.90;;
19739;SDS011;10027;51.066;13.768;2022-09-01T16:13:50;1.10;;;1.00;;
19739;SDS011;10027;51.066;13.768;2022-09-01T16:16:29;2.13;;;0.97;;
19739;SDS011;10027;51.066;13.768;2022-09-01T16:19:00;1.60;;;1.10;;
19739;SDS011;10027;51.066;13.768;2022-09-01T16:23:57;1.07;;;0.87;;
19739;SDS011;10027;51.066;13.768;2022-09-01T16:26:31;2.40;;;1.00;;